WetterOnline ( https://www.wetteronline.de )

Wetter aktuell Rauenberg

Aktuelles Wetter: Waibstadt (237m)

6-stündlich | Neueste Meldungen
Ortszeit Temperatur Wetter
Do, 23.09. 2:00 8.8° C leicht bewölkt
Mi, 22.09. 20:00 15.3° C wolkenlos
Mi, 22.09. 14:00 18.1° C leicht bewölkt
Mi, 22.09. 8:00 5.4° C wolkig
Mi, 22.09. 2:00 7.7° C wolkig
Di, 21.09. 20:00 13.2° C bewölkt
Di, 21.09. 14:00 16.2° C fast wolkenlos
Di, 21.09. 8:00 11.0° C bedeckt
Ortszeit Temperatur Wetter
Do, 23.09. 3:30 8.2° C wolkenlos
Do, 23.09. 3:20 8.2° C wolkenlos
Do, 23.09. 3:10 8.2° C fast wolkenlos
Do, 23.09. 3:00 8.2° C fast wolkenlos
Do, 23.09. 2:50 8.2° C fast wolkenlos
Do, 23.09. 2:40 8.4° C fast wolkenlos
Do, 23.09. 2:30 8.4° C fast wolkenlos
Do, 23.09. 2:00 8.8° C leicht bewölkt
Do, 23.09. 1:30 9.0° C fast wolkenlos
Do, 23.09. 1:00 9.5° C fast wolkenlos
Do, 23.09. 0:30 9.5° C wolkenlos
Ortszeit Relative Feuchte Sichtweite
Do, 23.09. 2:00 99% 11 km
Mi, 22.09. 20:00 70% 50 km
Mi, 22.09. 14:00 52% 55 km
Mi, 22.09. 8:00 98% 10 km
Mi, 22.09. 2:00 94% 21 km
Di, 21.09. 20:00 65% 45 km
Di, 21.09. 14:00 45% 50 km
Di, 21.09. 8:00 78% 35 km
Ortszeit Relative Feuchte Sichtweite
Do, 23.09. 3:30 99% 8 km
Do, 23.09. 3:20 99% -
Do, 23.09. 3:10 100% -
Do, 23.09. 3:00 99% 10 km
Do, 23.09. 2:50 99% -
Do, 23.09. 2:40 100% -
Do, 23.09. 2:30 99% 9 km
Do, 23.09. 2:00 99% 11 km
Do, 23.09. 1:30 98% 15 km
Do, 23.09. 1:00 98% 20 km
Do, 23.09. 0:30 97% 23 km
Ortszeit Niederschlagsmenge Niederschlagsart
Do, 23.09. 2:00 0.0 l/m2 in 6 Std. -
Mi, 22.09. 20:00 0.0 l/m2 in 12 Std. -
Mi, 22.09. 14:00 0.0 l/m2 in 6 Std. -
Mi, 22.09. 8:00 0.0 l/m2 in 12 Std. -
Mi, 22.09. 2:00 0.0 l/m2 in 6 Std. -
Di, 21.09. 20:00 0.0 l/m2 in 12 Std. -
Di, 21.09. 14:00 0.0 l/m2 in 6 Std. -
Di, 21.09. 8:00 0.0 l/m2 in 12 Std. -
Ortszeit Niederschlagsmenge Niederschlagsart
Do, 23.09. 3:30 0.0 l/m2 in 1 Std. -
Do, 23.09. 3:20 keine Meldung -
Do, 23.09. 3:10 keine Meldung -
Do, 23.09. 3:00 0.0 l/m2 in 1 Std. -
Do, 23.09. 2:50 keine Meldung -
Do, 23.09. 2:40 keine Meldung -
Do, 23.09. 2:30 0.0 l/m2 in 1 Std. -
Do, 23.09. 2:00 0.0 l/m2 in 1 Std. -
Do, 23.09. 1:30 0.0 l/m2 in 1 Std. -
Do, 23.09. 1:00 0.0 l/m2 in 1 Std. -
Do, 23.09. 0:30 0.0 l/m2 in 1 Std. -
Ortszeit Stärke Spitze Richtung
km/h Bft. km/h Grad Sektor
Do, 23.09. 2:00 4 1 7 100° O
Mi, 22.09. 20:00 2 1 17 170° S
Mi, 22.09. 14:00 4 1 14 360° N
Mi, 22.09. 8:00 4 1 7 80° O
Mi, 22.09. 2:00 4 1 7 50° NO
Di, 21.09. 20:00 4 1 18 110° O
Di, 21.09. 14:00 7 2 22 10° N
Di, 21.09. 8:00 6 1 13 50° NO
Ortszeit Stärke Spitze Richtung
km/h Bft. km/h Grad Sektor
Do, 23.09. 3:30 4 1 7 120° SO
Do, 23.09. 3:20 4 1 - 120° SO
Do, 23.09. 3:10 4 1 - 110° O
Do, 23.09. 3:00 4 1 7 90° O
Do, 23.09. 2:50 4 1 - 90° O
Do, 23.09. 2:40 6 1 - 90° O
Do, 23.09. 2:30 6 1 7 70° O
Do, 23.09. 2:00 4 1 7 100° O
Do, 23.09. 1:30 4 1 7 90° O
Do, 23.09. 1:00 4 1 7 90° O
Do, 23.09. 0:30 4 1 7 110° O
Ortszeit Untergrenze Bedeckung Gattung
total tief tief mittel hoch
Do, 23.09. 2:00 10500 m 4/8 0/8 - - -
Mi, 22.09. 20:00 - 0/8 0/8 - - -
Mi, 22.09. 14:00 9000 m 6/8 0/8 - - -
Mi, 22.09. 8:00 9000 m 8/8 0/8 - - -
Mi, 22.09. 2:00 8700 m 7/8 0/8 - - -
Di, 21.09. 20:00 6900 m 8/8 7/8 - - -
Di, 21.09. 14:00 1380 m 1/8 1/8 - - -
Di, 21.09. 8:00 1410 m 8/8 8/8 - - -
Ortszeit Bedeckungsgrad in Achtel und Wolkenuntergrenze
Do, 23.09. 3:30 keine Wolken
Do, 23.09. 3:20 keine Wolken
Do, 23.09. 3:10 1(10500m)
Do, 23.09. 3:00 2(10500m)
Do, 23.09. 2:50 2(10500m)
Do, 23.09. 2:40 1(10500m)
Do, 23.09. 2:30 1(10500m)
Do, 23.09. 2:00 4(10500m)
Do, 23.09. 1:30 2(10500m)
Do, 23.09. 1:00 1(12000m)
Do, 23.09. 0:30 1(12000m)
Ortszeit Luftdruck NN (hPa) Tendenz (hPa in 3 Std.)
Do, 23.09. 2:00 1026 - 0,9
Mi, 22.09. 20:00 1026 - 0,8
Mi, 22.09. 14:00 1028 - 1,3
Mi, 22.09. 8:00 1031 + 0,5
Mi, 22.09. 2:00 1031 - 0,1
Di, 21.09. 20:00 1030 + 1,1
Di, 21.09. 14:00 1028 0,0
Di, 21.09. 8:00 1027 + 1,7
Ortszeit Luftdruck NN (hPa) Tendenz (hPa in 3 Std.)
Do, 23.09. 3:30 1026 - 0,9
Do, 23.09. 3:20 1026 keine Meldung
Do, 23.09. 3:10 1026 keine Meldung
Do, 23.09. 3:00 1026 - 0,7
Do, 23.09. 2:50 1026 keine Meldung
Do, 23.09. 2:40 1026 keine Meldung
Do, 23.09. 2:30 1026 - 0,8
Do, 23.09. 2:00 1026 - 0,9
Do, 23.09. 1:30 1026 - 0,7
Do, 23.09. 1:00 1026 - 0,6
Do, 23.09. 0:30 1026 - 0,6
Ortszeit Schneehöhe (cm)
Do, 23.09. 2:00 -
Mi, 22.09. 20:00 -
Mi, 22.09. 14:00 -
Mi, 22.09. 8:00 -
Mi, 22.09. 2:00 -
Di, 21.09. 20:00 -
Di, 21.09. 14:00 -
Di, 21.09. 8:00 -
Ortszeit Schneehöhe (cm)
Do, 23.09. 3:30 -
Do, 23.09. 3:20 -
Do, 23.09. 3:10 -
Do, 23.09. 3:00 -
Do, 23.09. 2:50 -
Do, 23.09. 2:40 -
Do, 23.09. 2:30 -
Do, 23.09. 2:00 -
Do, 23.09. 1:30 -
Do, 23.09. 1:00 -
Do, 23.09. 0:30 -
Link zu dieser Seite / Seite empfehlen

Das Wetter in ...